createdAt,value
2019-02-08T00:01:41.963Z,1.32
2019-02-08T00:04:11.271Z,1.34
2019-02-08T00:06:40.620Z,1.31
2019-02-08T00:09:10.874Z,1.32
2019-02-08T00:11:40.093Z,1.31
2019-02-08T00:14:09.763Z,1.30
2019-02-08T00:16:39.233Z,1.32
2019-02-08T00:19:08.531Z,1.31
2019-02-08T00:21:37.955Z,1.31
2019-02-08T00:24:07.285Z,1.29
2019-02-08T00:26:36.504Z,1.29
2019-02-08T00:29:07.293Z,1.29
2019-02-08T00:31:36.511Z,1.27
2019-02-08T00:34:06.219Z,1.29
2019-02-08T00:36:35.505Z,1.30
2019-02-08T00:39:09.531Z,1.30
2019-02-08T00:41:38.820Z,1.29
2019-02-08T00:44:08.229Z,1.31
2019-02-08T00:46:37.461Z,1.31
2019-02-08T00:49:06.783Z,1.34
2019-02-08T00:51:36.094Z,1.36
2019-02-08T00:54:05.642Z,1.36
2019-02-08T00:56:35.420Z,1.37
2019-02-08T00:59:05.250Z,1.37
2019-02-08T01:01:34.462Z,1.37
2019-02-08T01:04:03.829Z,1.39
2019-02-08T01:06:33.150Z,1.39
2019-02-08T01:09:03.036Z,1.40
2019-02-08T01:11:32.235Z,1.40
2019-02-08T01:14:01.421Z,1.41
2019-02-08T01:16:30.820Z,1.41
2019-02-08T01:19:00.014Z,1.43
2019-02-08T01:21:29.255Z,1.44
2019-02-08T01:23:58.727Z,1.46
2019-02-08T01:26:27.913Z,1.48
2019-02-08T01:28:57.100Z,1.49
2019-02-08T01:31:26.625Z,1.52
2019-02-08T01:33:55.844Z,1.52
2019-02-08T01:36:25.032Z,1.54
2019-02-08T01:38:54.524Z,1.56
2019-02-08T01:41:23.710Z,1.56
2019-02-08T01:43:53.336Z,1.57
2019-02-08T01:46:22.639Z,1.55
2019-02-08T01:48:51.938Z,1.56
2019-02-08T01:51:21.128Z,1.56
2019-02-08T01:53:50.630Z,1.54
2019-02-08T01:56:19.828Z,1.53
2019-02-08T01:58:49.044Z,1.50
2019-02-08T02:01:18.403Z,1.51
2019-02-08T02:03:47.596Z,1.50
2019-02-08T02:06:16.795Z,1.52
2019-02-08T02:08:46.432Z,1.54
2019-02-08T02:11:15.644Z,1.53
2019-02-08T02:13:44.824Z,1.54
2019-02-08T02:16:14.342Z,1.54
2019-02-08T02:18:43.561Z,1.54
2019-02-08T02:21:12.775Z,1.56
2019-02-08T02:23:42.226Z,1.57
2019-02-08T02:26:11.426Z,1.56
2019-02-08T02:28:40.630Z,1.58
2019-02-08T02:31:10.124Z,1.61
2019-02-08T02:33:39.324Z,1.61
2019-02-08T02:36:08.536Z,1.61
2019-02-08T02:38:37.959Z,1.62
2019-02-08T02:41:07.206Z,1.65
2019-02-08T02:43:36.403Z,1.65
2019-02-08T02:46:05.769Z,1.65
2019-02-08T02:48:34.948Z,1.67
2019-02-08T02:51:04.186Z,1.68
2019-02-08T02:53:33.632Z,1.67
2019-02-08T02:56:02.816Z,1.69
2019-02-08T02:58:32.044Z,1.67
2019-02-08T03:01:01.389Z,1.66
2019-02-08T03:03:30.568Z,1.66
2019-02-08T03:05:59.804Z,1.66
2019-02-08T03:08:29.319Z,1.68
2019-02-08T03:10:59.029Z,1.69
2019-02-08T03:13:28.216Z,1.69
2019-02-08T03:15:57.639Z,1.70
2019-02-08T03:18:26.843Z,1.72
2019-02-08T03:20:56.060Z,1.71
2019-02-08T03:23:25.656Z,1.72
2019-02-08T03:25:54.905Z,1.73
2019-02-08T03:28:24.141Z,1.72
2019-02-08T03:30:58.462Z,1.72
2019-02-08T03:33:27.829Z,1.72
2019-02-08T03:35:57.011Z,1.72
2019-02-08T03:38:26.550Z,1.73
2019-02-08T03:40:56.070Z,1.73
2019-02-08T03:43:25.282Z,1.75
2019-02-08T03:45:54.634Z,1.76
2019-02-08T03:48:24.087Z,1.79
2019-02-08T03:50:53.312Z,1.78
2019-02-08T03:53:22.870Z,1.79
2019-02-08T03:55:57.995Z,1.79
2019-02-08T03:58:23.005Z,1.80
2019-02-08T04:01:06.283Z,1.81
2019-02-08T04:03:35.571Z,1.84
2019-02-08T04:06:05.496Z,1.83
2019-02-08T04:08:35.053Z,1.85
2019-02-08T04:11:04.644Z,1.83
2019-02-08T04:13:33.977Z,1.85
2019-02-08T04:16:03.453Z,1.85
2019-02-08T04:18:32.626Z,1.85
2019-02-08T04:21:01.820Z,1.86
2019-02-08T04:23:31.271Z,1.86
2019-02-08T04:26:00.456Z,1.89
2019-02-08T04:28:29.662Z,1.90
2019-02-08T04:30:59.153Z,1.92
2019-02-08T04:33:28.348Z,1.95
2019-02-08T04:35:59.216Z,1.97
2019-02-08T04:38:28.556Z,1.99
2019-02-08T04:40:57.857Z,2.02
2019-02-08T04:43:27.186Z,2.05
2019-02-08T04:45:56.705Z,2.08
2019-02-08T04:48:25.894Z,2.12
2019-02-08T04:50:55.086Z,2.14
2019-02-08T04:53:24.614Z,2.16
2019-02-08T04:55:53.792Z,2.19
2019-02-08T04:58:23.059Z,2.21
2019-02-08T05:00:53.539Z,2.24
2019-02-08T05:03:22.728Z,2.26
2019-02-08T05:05:51.935Z,2.28
2019-02-08T05:08:21.419Z,2.31
2019-02-08T05:10:50.621Z,2.33
2019-02-08T05:13:19.842Z,2.35
2019-02-08T05:15:49.286Z,2.37
2019-02-08T05:18:18.534Z,2.40
2019-02-08T05:20:47.749Z,2.46
2019-02-08T05:23:17.514Z,2.47
2019-02-08T05:25:46.709Z,2.52
2019-02-08T05:28:16.308Z,2.58
2019-02-08T05:30:45.831Z,2.61
2019-02-08T05:33:15.077Z,1.85
2019-02-08T05:35:44.295Z,2.68
2019-02-08T05:38:13.732Z,2.69
2019-02-08T05:40:42.929Z,2.72
2019-02-08T05:43:12.136Z,2.74
2019-02-08T05:45:41.767Z,2.59
2019-02-08T05:48:10.966Z,2.75
2019-02-08T05:50:40.167Z,2.78
2019-02-08T05:53:09.629Z,2.82
2019-02-08T05:55:38.823Z,2.84
2019-02-08T05:58:08.110Z,2.84
2019-02-08T06:01:09.920Z,2.84
2019-02-08T06:03:39.138Z,2.83
2019-02-08T06:06:08.365Z,2.83
2019-02-08T06:08:37.767Z,2.81
2019-02-08T06:11:06.998Z,2.80
2019-02-08T06:13:36.197Z,2.82
2019-02-08T06:16:05.993Z,2.80
2019-02-08T06:18:35.297Z,2.80
2019-02-08T06:21:04.858Z,2.84
2019-02-08T06:23:34.412Z,2.86
2019-02-08T06:26:03.642Z,2.86
2019-02-08T06:28:32.863Z,2.86
2019-02-08T06:31:02.189Z,2.81
2019-02-08T06:33:31.399Z,2.82
2019-02-08T06:36:00.604Z,2.78
2019-02-08T06:38:29.990Z,2.78
2019-02-08T06:40:59.195Z,2.82
2019-02-08T06:43:28.387Z,2.83
2019-02-08T06:45:59.598Z,2.79
2019-02-08T06:48:28.808Z,2.79
2019-02-08T06:51:00.600Z,2.80
2019-02-08T06:53:29.840Z,2.83
2019-02-08T06:55:59.043Z,2.83
2019-02-08T06:58:41.644Z,2.84
2019-02-08T07:01:36.145Z,2.85
2019-02-08T07:04:37.143Z,2.89
2019-02-08T07:07:17.458Z,2.91
2019-02-08T07:09:54.900Z,2.96
2019-02-08T07:12:41.765Z,2.98
2019-02-08T07:15:29.015Z,2.99
2019-02-08T07:18:16.131Z,3.01
2019-02-08T07:21:22.829Z,3.02
2019-02-08T07:24:20.389Z,3.02
2019-02-08T07:27:24.086Z,3.03
2019-02-08T07:30:12.248Z,3.03
2019-02-08T07:32:59.645Z,3.03
2019-02-08T07:35:47.797Z,3.04
2019-02-08T07:38:37.978Z,3.06
2019-02-08T07:41:28.649Z,3.08
2019-02-08T07:44:17.157Z,3.12
2019-02-08T07:47:10.242Z,3.14
2019-02-08T07:50:03.867Z,3.17
2019-02-08T07:52:55.298Z,3.18
2019-02-08T07:55:53.148Z,3.21
2019-02-08T07:58:40.103Z,3.28
2019-02-08T08:01:37.666Z,3.33
2019-02-08T08:04:43.061Z,3.44
2019-02-08T08:07:20.759Z,3.67
2019-02-08T08:10:20.915Z,4.03
2019-02-08T08:12:58.680Z,4.25
2019-02-08T08:15:48.015Z,4.25
2019-02-08T08:18:38.564Z,4.27
2019-02-08T08:21:32.895Z,4.17
2019-02-08T08:24:31.163Z,4.11
2019-02-08T08:27:25.401Z,4.08
2019-02-08T08:30:21.762Z,4.07
2019-02-08T08:33:08.871Z,4.08
2019-02-08T08:36:17.697Z,4.18
2019-02-08T08:39:27.584Z,4.35
2019-02-08T08:42:21.761Z,4.32
2019-02-08T08:45:26.852Z,4.21
2019-02-08T08:48:41.632Z,4.16
2019-02-08T08:51:56.748Z,4.10
2019-02-08T08:55:13.098Z,4.06
2019-02-08T08:58:11.282Z,3.99
2019-02-08T09:01:16.388Z,3.96
2019-02-08T09:04:01.511Z,3.95
2019-02-08T09:07:35.877Z,3.96
2019-02-08T09:10:39.314Z,4.01
2019-02-08T09:13:57.654Z,4.03
2019-02-08T09:16:52.444Z,4.05
2019-02-08T09:20:08.965Z,4.06
2019-02-08T09:23:37.157Z,4.06
2019-02-08T09:26:39.694Z,4.07
2019-02-08T09:29:48.312Z,4.04
2019-02-08T09:32:37.014Z,4.04
2019-02-08T09:35:34.472Z,4.03
2019-02-08T09:38:44.637Z,4.03
2019-02-08T09:42:00.441Z,4.09
2019-02-08T09:45:09.580Z,4.17
2019-02-08T09:48:03.557Z,4.21
2019-02-08T09:51:32.618Z,4.26
2019-02-08T09:54:38.251Z,4.29
2019-02-08T09:57:43.310Z,4.29
2019-02-08T10:00:51.992Z,4.29
2019-02-08T10:04:15.221Z,4.31
2019-02-08T10:07:08.274Z,4.36
2019-02-08T10:10:15.945Z,4.42
2019-02-08T10:13:30.438Z,4.44
2019-02-08T10:16:35.958Z,4.48
2019-02-08T10:19:51.158Z,4.46
2019-02-08T10:23:19.643Z,4.44
2019-02-08T10:26:14.796Z,4.42
2019-02-08T10:29:26.641Z,4.41
2019-02-08T10:32:31.382Z,4.42
2019-02-08T10:35:42.637Z,4.40
2019-02-08T10:38:52.545Z,4.33
2019-02-08T10:41:48.042Z,4.37
2019-02-08T10:45:06.548Z,4.38
2019-02-08T10:48:14.974Z,4.38
2019-02-08T10:51:34.681Z,4.41
2019-02-08T10:54:49.371Z,4.41
2019-02-08T10:57:46.490Z,4.40
2019-02-08T11:01:05.334Z,4.40
2019-02-08T11:04:27.114Z,4.39
2019-02-08T11:07:27.751Z,4.41
2019-02-08T11:10:28.177Z,4.52
2019-02-08T11:13:34.429Z,4.55
2019-02-08T11:16:36.401Z,4.52
2019-02-08T11:19:20.210Z,4.46
2019-02-08T11:21:51.034Z,4.39
2019-02-08T11:24:22.982Z,4.29
2019-02-08T11:26:52.823Z,4.26
2019-02-08T11:29:22.493Z,4.21
2019-02-08T11:31:51.967Z,4.18
2019-02-08T11:34:21.203Z,4.18
2019-02-08T11:36:50.418Z,4.16
2019-02-08T11:39:20.749Z,4.14
2019-02-08T11:41:51.187Z,4.12
2019-02-08T11:44:22.433Z,4.13
2019-02-08T11:46:52.756Z,4.16
2019-02-08T11:49:22.088Z,4.19
2019-02-08T11:51:51.541Z,4.34
2019-02-08T11:54:20.732Z,4.47
2019-02-08T11:56:49.972Z,4.47
2019-02-08T11:59:19.343Z,4.49
2019-02-08T12:01:50.988Z,4.53
2019-02-08T12:04:20.643Z,4.49
2019-02-08T12:06:49.902Z,4.47
2019-02-08T12:09:19.186Z,4.46
2019-02-08T12:11:48.496Z,4.46
2019-02-08T12:14:17.839Z,4.49
2019-02-08T12:16:47.016Z,4.47
2019-02-08T12:19:16.451Z,4.46
2019-02-08T12:21:45.644Z,4.45
2019-02-08T12:24:16.326Z,4.48
2019-02-08T12:26:45.675Z,4.46
2019-02-08T12:29:14.881Z,4.49
2019-02-08T12:31:44.389Z,4.58
2019-02-08T12:34:13.937Z,4.72
2019-02-08T12:36:43.165Z,4.92
2019-02-08T12:39:12.809Z,4.87
2019-02-08T12:41:42.876Z,4.77
2019-02-08T12:44:12.432Z,4.64
2019-02-08T12:46:41.857Z,4.59
2019-02-08T12:49:11.294Z,4.60
2019-02-08T12:51:40.549Z,4.63
2019-02-08T12:54:09.831Z,4.59
2019-02-08T12:56:45.438Z,4.53
2019-02-08T12:59:10.197Z,4.49
2019-02-08T13:01:39.619Z,4.45
2019-02-08T13:04:08.885Z,4.45
2019-02-08T13:06:38.094Z,4.47
2019-02-08T13:09:11.524Z,4.45
2019-02-08T13:11:40.830Z,4.49
2019-02-08T13:14:10.008Z,4.59
2019-02-08T13:16:39.298Z,4.73
2019-02-08T13:19:08.541Z,4.88
2019-02-08T13:21:37.885Z,4.89
2019-02-08T13:24:07.535Z,5.01
2019-02-08T13:26:36.939Z,5.00
2019-02-08T13:29:06.390Z,4.94
2019-02-08T13:31:36.851Z,4.94
2019-02-08T13:34:15.663Z,4.80
2019-02-08T13:36:51.315Z,4.62
2019-02-08T13:39:21.766Z,4.49
2019-02-08T13:41:51.324Z,4.39
2019-02-08T13:44:24.592Z,4.33
2019-02-08T13:46:57.528Z,4.27
2019-02-08T13:49:31.875Z,4.20
2019-02-08T13:52:03.452Z,4.16
2019-02-08T13:54:33.113Z,4.15
2019-02-08T13:57:04.612Z,4.09
2019-02-08T13:59:34.562Z,4.05
2019-02-08T14:02:04.177Z,4.03
2019-02-08T14:04:33.883Z,4.01
2019-02-08T14:07:05.677Z,3.96
2019-02-08T14:09:34.976Z,3.98
2019-02-08T14:12:06.736Z,3.99
2019-02-08T14:14:36.524Z,3.93
2019-02-08T14:17:10.023Z,3.87
2019-02-08T14:19:40.582Z,3.82
2019-02-08T14:22:13.152Z,3.78
2019-02-08T14:24:48.540Z,3.73
2019-02-08T14:27:18.297Z,3.68
2019-02-08T14:30:04.876Z,3.65
2019-02-08T14:32:35.008Z,3.60
2019-02-08T14:35:08.395Z,3.54
2019-02-08T14:37:40.133Z,3.51
2019-02-08T14:40:12.555Z,3.50
2019-02-08T14:42:45.017Z,3.48
2019-02-08T14:45:15.845Z,3.47
2019-02-08T14:47:52.967Z,3.44
2019-02-08T14:50:24.353Z,3.42
2019-02-08T14:52:58.527Z,3.41
2019-02-08T14:55:29.421Z,3.38
2019-02-08T14:58:02.424Z,3.37
2019-02-08T15:00:31.749Z,3.36
2019-02-08T15:03:06.325Z,3.36
2019-02-08T15:05:35.613Z,3.33
2019-02-08T15:08:08.055Z,3.30
2019-02-08T15:10:40.022Z,3.28
2019-02-08T15:13:11.896Z,3.26
2019-02-08T15:15:41.441Z,3.26
2019-02-08T15:18:12.292Z,3.23
2019-02-08T15:20:42.026Z,3.23
2019-02-08T15:23:14.879Z,3.21
2019-02-08T15:25:46.568Z,3.19
2019-02-08T15:28:16.207Z,3.18
2019-02-08T15:30:45.924Z,3.16
2019-02-08T15:33:15.707Z,3.15
2019-02-08T15:35:46.995Z,3.16
2019-02-08T15:38:18.116Z,3.15
2019-02-08T15:40:53.525Z,3.15
2019-02-08T15:43:25.368Z,3.16
2019-02-08T15:45:59.070Z,3.19
2019-02-08T15:48:29.295Z,3.19
2019-02-08T15:51:01.264Z,3.21
2019-02-08T15:53:33.204Z,3.20
2019-02-08T15:56:10.220Z,3.22
2019-02-08T15:58:40.529Z,3.21
2019-02-08T16:01:12.789Z,3.20
2019-02-08T16:03:42.541Z,3.22
2019-02-08T16:06:12.418Z,3.19
2019-02-08T16:08:45.094Z,3.19
2019-02-08T16:11:16.936Z,3.19
2019-02-08T16:13:46.530Z,3.20
2019-02-08T16:16:18.000Z,3.21
2019-02-08T16:18:48.011Z,3.20
2019-02-08T16:21:25.172Z,3.24
2019-02-08T16:23:59.943Z,3.26
2019-02-08T16:26:29.820Z,3.28
2019-02-08T16:29:03.061Z,3.32
2019-02-08T16:31:33.922Z,3.33
2019-02-08T16:34:04.005Z,3.36
2019-02-08T16:36:36.663Z,3.38
2019-02-08T16:39:12.994Z,3.39
2019-02-08T16:41:45.826Z,3.39
2019-02-08T16:44:17.372Z,3.39
2019-02-08T16:46:51.602Z,3.42
2019-02-08T16:49:26.620Z,3.47
2019-02-08T16:51:55.881Z,3.48
2019-02-08T16:54:25.826Z,3.52
2019-02-08T16:56:55.303Z,3.56
2019-02-08T16:59:25.579Z,3.54
2019-02-08T17:01:56.743Z,3.57
2019-02-08T17:04:26.062Z,3.59
2019-02-08T17:06:59.458Z,3.58
2019-02-08T17:09:42.464Z,3.59
2019-02-08T17:12:11.905Z,3.63
2019-02-08T17:14:41.126Z,3.62
2019-02-08T17:17:13.615Z,3.57
2019-02-08T17:19:43.166Z,3.58
2019-02-08T17:22:12.459Z,3.57
2019-02-08T17:24:41.778Z,3.56
2019-02-08T17:27:11.308Z,3.55
2019-02-08T17:29:41.948Z,3.54
2019-02-08T17:32:14.605Z,3.53
2019-02-08T17:34:49.144Z,3.54
2019-02-08T17:37:19.625Z,3.54
2019-02-08T17:39:48.901Z,3.51
2019-02-08T17:42:19.646Z,3.47
2019-02-08T17:44:49.139Z,3.45
2019-02-08T17:47:19.565Z,3.41
2019-02-08T17:50:00.273Z,3.38
2019-02-08T17:52:29.568Z,3.37
2019-02-08T17:55:00.431Z,3.36
2019-02-08T17:57:40.180Z,3.34
2019-02-08T18:00:39.468Z,3.36
2019-02-08T18:03:08.829Z,3.44
2019-02-08T18:05:39.251Z,3.48
2019-02-08T18:08:13.706Z,3.51
2019-02-08T18:10:43.167Z,3.53
2019-02-08T18:13:12.924Z,3.58
2019-02-08T18:15:44.320Z,3.59
2019-02-08T18:18:28.758Z,3.61
2019-02-08T18:21:09.716Z,3.63
2019-02-08T18:23:42.422Z,3.62
2019-02-08T18:26:36.998Z,3.62
2019-02-08T18:29:06.476Z,3.63
2019-02-08T18:31:47.455Z,3.66
2019-02-08T18:34:18.993Z,3.66
2019-02-08T18:36:49.210Z,3.67
2019-02-08T18:39:20.256Z,3.70
2019-02-08T18:41:49.489Z,3.74
2019-02-08T18:44:19.522Z,3.81
2019-02-08T18:46:55.508Z,3.82
2019-02-08T18:49:47.342Z,3.82
2019-02-08T18:52:25.421Z,3.83
2019-02-08T18:54:57.708Z,3.83
2019-02-08T18:57:45.603Z,3.84
2019-02-08T19:00:19.292Z,3.82
2019-02-08T19:02:52.179Z,3.81
2019-02-08T19:05:45.522Z,3.81
2019-02-08T19:08:45.464Z,3.81
2019-02-08T19:12:02.740Z,3.80
2019-02-08T19:14:43.099Z,3.78
2019-02-08T19:17:37.983Z,3.76
2019-02-08T19:20:21.434Z,3.73
2019-02-08T19:22:51.312Z,3.72
2019-02-08T19:25:26.684Z,3.74
2019-02-08T19:27:56.614Z,3.73
2019-02-08T19:30:31.475Z,3.73
2019-02-08T19:33:24.394Z,3.72
2019-02-08T19:35:59.208Z,3.71
2019-02-08T19:38:35.272Z,3.71
2019-02-08T19:41:18.354Z,3.69
2019-02-08T19:44:01.955Z,3.67
2019-02-08T19:47:04.466Z,3.67
2019-02-08T19:49:33.861Z,3.68
2019-02-08T19:52:12.485Z,3.67
2019-02-08T19:55:45.771Z,3.66
2019-02-08T20:01:57.135Z,3.65
2019-02-08T20:04:30.685Z,3.64
2019-02-08T20:07:01.644Z,3.63
2019-02-08T20:09:54.369Z,3.61
2019-02-08T20:15:25.837Z,3.61
2019-02-08T20:17:57.084Z,3.59
2019-02-08T20:20:31.490Z,3.57
2019-02-08T20:23:11.757Z,3.56
2019-02-08T20:29:20.877Z,3.53
2019-02-08T20:32:33.099Z,3.47
2019-02-08T20:46:17.508Z,3.21
2019-02-08T20:48:49.768Z,3.13
2019-02-08T20:54:47.668Z,3.04
2019-02-08T20:57:28.228Z,3.00
2019-02-08T21:00:30.769Z,2.99
2019-02-08T21:03:50.479Z,2.98
2019-02-08T21:07:04.123Z,2.97
2019-02-08T21:10:20.792Z,2.95
2019-02-08T21:13:09.294Z,2.93
2019-02-08T21:16:21.542Z,2.90
2019-02-08T21:19:04.336Z,2.89
2019-02-08T21:21:53.033Z,2.88
2019-02-08T21:24:39.798Z,2.86
2019-02-08T21:27:17.670Z,2.87
2019-02-08T21:29:56.773Z,2.85
2019-02-08T21:32:40.753Z,2.86
2019-02-08T21:35:10.585Z,2.84
2019-02-08T21:37:42.402Z,2.85
2019-02-08T21:40:16.185Z,2.84
2019-02-08T21:42:48.503Z,2.85
2019-02-08T21:45:28.863Z,2.86
2019-02-08T21:47:59.607Z,2.85
2019-02-08T21:50:29.807Z,2.86
2019-02-08T21:53:00.072Z,2.87
2019-02-08T21:55:32.597Z,2.85
2019-02-08T21:58:01.986Z,2.84
2019-02-08T22:00:33.276Z,2.86
2019-02-08T22:03:05.817Z,2.85
2019-02-08T22:05:56.558Z,2.86
2019-02-08T22:08:25.778Z,2.88
2019-02-08T22:10:54.980Z,2.90
2019-02-08T22:13:24.555Z,2.90
2019-02-08T22:15:53.866Z,2.91
2019-02-08T22:18:29.942Z,2.92
2019-02-08T22:20:59.310Z,2.91
2019-02-08T22:23:28.512Z,2.91
2019-02-08T22:25:58.002Z,2.89
2019-02-08T22:28:27.290Z,2.88
2019-02-08T22:30:56.578Z,2.87
2019-02-08T22:33:26.331Z,2.86
2019-02-08T22:35:55.781Z,2.86
2019-02-08T22:38:27.997Z,2.87
2019-02-08T22:40:57.195Z,2.89
2019-02-08T22:43:26.751Z,2.91
2019-02-08T22:45:56.218Z,2.91
2019-02-08T22:48:26.742Z,2.12
2019-02-08T22:50:56.064Z,2.91
2019-02-08T22:53:25.951Z,2.93
2019-02-08T22:55:56.377Z,2.97
2019-02-08T22:58:25.942Z,2.98
2019-02-08T23:01:23.508Z,2.99
2019-02-08T23:03:54.655Z,3.01
2019-02-08T23:06:26.231Z,3.00
2019-02-08T23:08:57.521Z,3.02
2019-02-08T23:11:28.234Z,3.03
2019-02-08T23:13:58.126Z,3.04
2019-02-08T23:16:27.383Z,3.04
2019-02-08T23:18:58.265Z,2.25
2019-02-08T23:21:27.961Z,3.05
2019-02-08T23:23:57.994Z,3.07
2019-02-08T23:26:27.253Z,3.07
2019-02-08T23:28:56.285Z,3.06
2019-02-08T23:31:26.742Z,3.07
2019-02-08T23:33:58.045Z,3.07
2019-02-08T23:36:27.241Z,3.06
2019-02-08T23:38:56.922Z,3.04
2019-02-08T23:41:26.151Z,3.02
2019-02-08T23:43:55.339Z,3.01
2019-02-08T23:46:24.765Z,2.99
2019-02-08T23:48:54.006Z,2.96
2019-02-08T23:51:24.078Z,2.94
2019-02-08T23:53:53.444Z,2.93
2019-02-08T23:56:22.800Z,2.89
2019-02-08T23:58:51.994Z,2.88
